createdAt,value
2018-08-10T00:01:01.793Z,20.00
2018-08-10T00:03:37.369Z,20.00
2018-08-10T00:06:12.820Z,19.90
2018-08-10T00:08:55.060Z,19.90
2018-08-10T00:11:30.324Z,19.90
2018-08-10T00:14:06.098Z,19.90
2018-08-10T00:16:41.500Z,19.90
2018-08-10T00:19:17.384Z,19.90
2018-08-10T00:21:52.834Z,19.90
2018-08-10T00:24:28.480Z,19.80
2018-08-10T00:27:03.833Z,19.80
2018-08-10T00:29:39.569Z,19.80
2018-08-10T00:32:14.909Z,19.90
2018-08-10T00:34:50.365Z,19.90
2018-08-10T00:37:25.720Z,20.00
2018-08-10T00:40:01.188Z,20.10
2018-08-10T00:42:36.595Z,20.00
2018-08-10T00:45:13.271Z,20.00
2018-08-10T00:47:49.004Z,19.90
2018-08-10T00:50:24.672Z,19.80
2018-08-10T00:53:00.132Z,19.80
2018-08-10T00:55:35.591Z,19.70
2018-08-10T00:58:10.832Z,19.70
2018-08-10T01:00:46.453Z,19.60
2018-08-10T01:03:21.894Z,19.60
2018-08-10T01:05:57.447Z,19.50
2018-08-10T01:08:32.740Z,19.60
2018-08-10T01:11:08.429Z,19.50
2018-08-10T01:13:43.628Z,19.50
2018-08-10T01:16:19.228Z,19.40
2018-08-10T01:18:54.741Z,19.40
2018-08-10T01:21:30.425Z,19.40
2018-08-10T01:24:05.737Z,19.30
2018-08-10T01:26:41.104Z,19.30
2018-08-10T01:29:16.296Z,19.30
2018-08-10T01:31:52.197Z,19.30
2018-08-10T01:34:27.517Z,19.30
2018-08-10T01:37:03.291Z,19.30
2018-08-10T01:39:38.545Z,19.30
2018-08-10T01:42:14.091Z,19.40
2018-08-10T01:44:49.496Z,19.40
2018-08-10T01:47:25.076Z,19.50
2018-08-10T01:50:00.556Z,19.60
2018-08-10T01:52:36.072Z,19.50
2018-08-10T01:55:11.914Z,19.60
2018-08-10T01:57:47.580Z,19.60
2018-08-10T02:00:23.070Z,19.60
2018-08-10T02:02:58.769Z,19.60
2018-08-10T02:05:34.245Z,19.60
2018-08-10T02:08:09.861Z,19.60
2018-08-10T02:10:45.716Z,19.60
2018-08-10T02:13:27.829Z,19.60
2018-08-10T02:16:03.288Z,19.60
2018-08-10T02:18:38.713Z,19.50
2018-08-10T02:21:14.157Z,19.50
2018-08-10T02:23:49.712Z,19.50
2018-08-10T02:26:24.872Z,19.50
2018-08-10T02:29:00.402Z,19.40
2018-08-10T02:31:36.030Z,19.30
2018-08-10T02:34:11.592Z,19.30
2018-08-10T02:36:47.064Z,19.20
2018-08-10T02:39:22.476Z,19.10
2018-08-10T02:41:57.842Z,19.10
2018-08-10T02:44:33.373Z,19.00
2018-08-10T02:47:08.837Z,19.00
2018-08-10T02:49:44.362Z,19.10
2018-08-10T02:52:19.996Z,19.10
2018-08-10T02:54:55.668Z,19.10
2018-08-10T02:57:30.958Z,19.10
2018-08-10T03:00:09.753Z,19.10
2018-08-10T03:02:45.356Z,19.10
2018-08-10T03:05:21.140Z,19.10
2018-08-10T03:07:56.560Z,19.10
2018-08-10T03:10:32.338Z,19.10
2018-08-10T03:13:07.850Z,19.10
2018-08-10T03:15:43.393Z,19.00
2018-08-10T03:18:18.829Z,18.90
2018-08-10T03:20:54.284Z,18.90
2018-08-10T03:23:29.510Z,18.90
2018-08-10T03:26:05.211Z,18.90
2018-08-10T03:28:40.656Z,18.90
2018-08-10T03:31:16.404Z,18.80
2018-08-10T03:33:51.621Z,18.80
2018-08-10T03:36:27.188Z,18.70
2018-08-10T03:39:02.396Z,18.70
2018-08-10T03:41:38.080Z,18.60
2018-08-10T03:44:13.460Z,18.60
2018-08-10T03:46:49.152Z,18.50
2018-08-10T03:49:24.547Z,18.40
2018-08-10T03:52:00.277Z,18.50
2018-08-10T03:54:35.720Z,18.50
2018-08-10T03:57:11.473Z,18.40
2018-08-10T03:59:46.868Z,18.40
2018-08-10T04:02:22.493Z,18.40
2018-08-10T04:04:57.841Z,18.40
2018-08-10T04:07:33.257Z,18.40
2018-08-10T04:10:09.612Z,18.40
2018-08-10T04:12:45.276Z,18.40
2018-08-10T04:15:20.601Z,18.40
2018-08-10T04:17:56.157Z,18.40
2018-08-10T04:20:31.636Z,18.30
2018-08-10T04:23:07.461Z,18.30
2018-08-10T04:25:42.936Z,18.40
2018-08-10T04:28:18.529Z,18.30
2018-08-10T04:30:54.085Z,18.30
2018-08-10T04:33:29.652Z,18.30
2018-08-10T04:36:05.161Z,18.20
2018-08-10T04:38:40.953Z,18.20
2018-08-10T04:41:16.299Z,18.10
2018-08-10T04:43:51.944Z,18.10
2018-08-10T04:46:27.440Z,18.10
2018-08-10T04:49:03.034Z,18.20
2018-08-10T04:51:38.489Z,18.20
2018-08-10T04:54:14.232Z,18.20
2018-08-10T04:56:49.591Z,18.20
2018-08-10T04:59:25.640Z,18.20
2018-08-10T05:02:01.033Z,18.20
2018-08-10T05:04:36.750Z,18.10
2018-08-10T05:07:12.227Z,18.20
2018-08-10T05:09:48.171Z,18.10
2018-08-10T05:12:23.659Z,18.10
2018-08-10T05:14:59.559Z,18.10
2018-08-10T05:17:36.214Z,18.20
2018-08-10T05:20:13.033Z,18.10
2018-08-10T05:22:48.454Z,18.10
2018-08-10T05:25:24.099Z,18.10
2018-08-10T05:27:59.463Z,17.90
2018-08-10T05:30:35.042Z,17.90
2018-08-10T05:33:10.742Z,17.90
2018-08-10T05:35:46.584Z,18.10
2018-08-10T05:38:22.200Z,18.10
2018-08-10T05:40:58.090Z,18.10
2018-08-10T05:43:33.320Z,18.00
2018-08-10T05:46:09.206Z,18.00
2018-08-10T05:48:44.617Z,18.00
2018-08-10T05:51:20.176Z,17.80
2018-08-10T05:53:55.668Z,17.80
2018-08-10T05:56:31.568Z,17.90
2018-08-10T05:59:07.497Z,18.10
2018-08-10T06:01:43.701Z,18.20
2018-08-10T06:04:19.445Z,18.50
2018-08-10T06:06:55.037Z,18.60
2018-08-10T06:09:30.612Z,18.50
2018-08-10T06:12:06.552Z,19.00
2018-08-10T06:14:43.487Z,20.90
2018-08-10T06:17:19.163Z,22.30
2018-08-10T06:19:55.119Z,22.90
2018-08-10T06:22:31.134Z,23.20
2018-08-10T06:25:12.603Z,23.30
2018-08-10T06:27:51.766Z,23.50
2018-08-10T06:30:29.819Z,22.80
2018-08-10T06:33:06.441Z,21.90
2018-08-10T06:35:42.831Z,21.50
2018-08-10T06:38:18.395Z,21.60
2018-08-10T06:40:53.864Z,21.50
2018-08-10T06:43:29.356Z,21.20
2018-08-10T06:46:05.444Z,21.20
2018-08-10T06:48:41.170Z,20.90
2018-08-10T06:51:16.551Z,20.30
2018-08-10T06:53:52.056Z,19.90
2018-08-10T06:56:27.276Z,20.70
2018-08-10T06:59:02.755Z,21.40
2018-08-10T07:01:38.248Z,21.40
2018-08-10T07:04:13.936Z,22.00
2018-08-10T07:06:49.516Z,22.00
2018-08-10T07:09:25.196Z,22.10
2018-08-10T07:12:00.588Z,22.80
2018-08-10T07:14:36.026Z,23.00
2018-08-10T07:17:11.596Z,23.20
2018-08-10T07:19:47.232Z,23.80
2018-08-10T07:22:22.524Z,23.90
2018-08-10T07:24:58.122Z,23.60
2018-08-10T07:27:33.797Z,23.30
2018-08-10T07:30:09.317Z,22.90
2018-08-10T07:32:44.979Z,22.50
2018-08-10T07:35:20.520Z,22.20
2018-08-10T07:37:56.005Z,22.10
2018-08-10T07:40:31.511Z,22.50
2018-08-10T07:43:06.797Z,23.10
2018-08-10T07:45:42.412Z,23.70
2018-08-10T07:48:17.781Z,23.80
2018-08-10T07:50:53.213Z,23.80
2018-08-10T07:53:28.616Z,23.90
2018-08-10T07:56:04.178Z,23.30
2018-08-10T07:58:39.488Z,23.30
2018-08-10T08:01:15.291Z,23.10
2018-08-10T08:03:57.321Z,22.70
2018-08-10T08:06:32.704Z,22.00
2018-08-10T08:09:11.512Z,21.50
2018-08-10T08:11:47.076Z,21.20
2018-08-10T08:14:22.532Z,21.60
2018-08-10T08:16:58.022Z,21.50
2018-08-10T08:19:33.422Z,21.20
2018-08-10T08:22:12.230Z,21.20
2018-08-10T08:24:47.696Z,21.00
2018-08-10T08:27:23.260Z,21.00
2018-08-10T08:29:58.488Z,20.90
2018-08-10T08:32:34.238Z,20.90
2018-08-10T08:35:09.485Z,21.00
2018-08-10T08:37:45.128Z,21.00
2018-08-10T08:40:24.137Z,21.20
2018-08-10T08:42:59.707Z,21.60
2018-08-10T08:45:59.699Z,21.60
2018-08-10T08:48:36.710Z,21.90
2018-08-10T08:51:14.378Z,21.90
2018-08-10T08:54:05.778Z,21.70
2018-08-10T08:56:44.112Z,21.80
2018-08-10T08:59:19.781Z,22.00
2018-08-10T09:01:55.137Z,22.20
2018-08-10T09:05:06.828Z,22.30
2018-08-10T09:07:42.107Z,22.10
2018-08-10T09:10:18.225Z,21.90
2018-08-10T09:12:53.685Z,21.90
2018-08-10T09:15:29.223Z,21.90
2018-08-10T09:18:07.534Z,21.70
2018-08-10T09:20:43.075Z,21.70
2018-08-10T09:23:18.271Z,22.20
2018-08-10T09:25:53.903Z,22.80
2018-08-10T09:28:29.377Z,23.00
2018-08-10T09:31:04.962Z,22.40
2018-08-10T09:33:40.292Z,22.10
2018-08-10T09:36:15.853Z,21.70
2018-08-10T09:38:51.281Z,21.20
2018-08-10T09:41:26.799Z,20.90
2018-08-10T09:44:02.137Z,20.80
2018-08-10T09:46:37.841Z,20.70
2018-08-10T09:49:13.092Z,20.80
2018-08-10T09:51:48.581Z,20.80
2018-08-10T09:54:23.859Z,21.00
2018-08-10T09:57:04.411Z,21.00
2018-08-10T09:59:39.894Z,21.30
2018-08-10T10:02:21.972Z,21.20
2018-08-10T10:04:57.414Z,21.20
2018-08-10T10:07:32.969Z,21.60
2018-08-10T10:10:08.529Z,21.90
2018-08-10T10:12:43.968Z,22.30
2018-08-10T10:15:19.418Z,22.50
2018-08-10T10:21:50.114Z,23.10
2018-08-10T10:24:26.126Z,23.00
2018-08-10T10:27:59.004Z,22.80
2018-08-10T10:33:26.232Z,22.40
2018-08-10T10:36:01.676Z,22.20
2018-08-10T10:38:37.185Z,22.00
2018-08-10T10:41:12.515Z,21.80
2018-08-10T10:43:48.181Z,21.50
2018-08-10T10:46:23.585Z,21.30
2018-08-10T10:48:59.208Z,21.00
2018-08-10T10:51:34.505Z,21.10
2018-08-10T10:54:09.883Z,21.30
2018-08-10T10:56:45.325Z,21.70
2018-08-10T10:59:20.950Z,22.20
2018-08-10T11:01:56.333Z,22.90
2018-08-10T11:04:31.966Z,23.40
2018-08-10T11:07:07.675Z,23.70
2018-08-10T11:09:43.359Z,23.50
2018-08-10T11:12:18.979Z,23.10
2018-08-10T11:14:54.848Z,22.90
2018-08-10T11:17:31.760Z,22.60
2018-08-10T11:20:09.658Z,22.60
2018-08-10T11:22:44.886Z,22.40
2018-08-10T11:25:21.088Z,22.20
2018-08-10T11:27:57.046Z,22.20
2018-08-10T11:30:32.837Z,22.50
2018-08-10T11:33:08.470Z,22.70
2018-08-10T11:35:44.276Z,22.80
2018-08-10T11:38:19.872Z,22.60
2018-08-10T11:40:55.490Z,22.20
2018-08-10T11:43:31.149Z,22.10
2018-08-10T11:46:06.749Z,22.40
2018-08-10T11:48:42.256Z,22.80
2018-08-10T11:51:18.069Z,23.00
2018-08-10T11:53:53.584Z,23.10
2018-08-10T11:56:29.275Z,23.10
2018-08-10T11:59:04.772Z,22.60
2018-08-10T12:01:40.159Z,22.50
2018-08-10T12:04:15.843Z,22.40
2018-08-10T12:06:52.015Z,22.30
2018-08-10T12:09:27.570Z,22.60
2018-08-10T12:12:03.331Z,22.50
2018-08-10T12:14:38.956Z,22.50
2018-08-10T12:17:14.695Z,22.30
2018-08-10T12:19:50.649Z,22.20
2018-08-10T12:22:26.313Z,22.40
2018-08-10T12:27:39.400Z,22.80
2018-08-10T12:30:14.784Z,22.40
2018-08-10T12:32:50.292Z,22.00
2018-08-10T12:35:25.723Z,22.10
2018-08-10T12:38:02.755Z,22.30
2018-08-10T12:40:38.597Z,22.60
2018-08-10T12:43:14.028Z,22.90
2018-08-10T12:45:49.812Z,23.30
2018-08-10T12:48:25.803Z,23.50
2018-08-10T12:51:01.328Z,23.60
2018-08-10T12:53:37.236Z,23.80
2018-08-10T12:56:13.472Z,23.50
2018-08-10T12:58:49.144Z,23.00
2018-08-10T13:01:24.612Z,23.10
2018-08-10T13:04:00.048Z,23.40
2018-08-10T13:06:35.235Z,23.40
2018-08-10T13:09:13.314Z,23.50
2018-08-10T13:11:48.817Z,23.70
2018-08-10T13:14:24.487Z,23.80
2018-08-10T13:16:59.665Z,23.70
2018-08-10T13:19:35.068Z,23.70
2018-08-10T13:22:10.369Z,23.70
2018-08-10T13:24:46.057Z,23.80
2018-08-10T13:27:21.356Z,24.00
2018-08-10T13:29:56.971Z,24.10
2018-08-10T13:32:32.680Z,24.00
2018-08-10T13:35:08.559Z,23.70
2018-08-10T13:37:43.928Z,23.40
2018-08-10T13:40:19.449Z,23.10
2018-08-10T13:42:55.006Z,23.00
2018-08-10T13:45:30.433Z,23.30
2018-08-10T13:48:05.756Z,23.60
2018-08-10T13:50:41.155Z,23.80
2018-08-10T13:53:16.522Z,24.10
2018-08-10T13:55:52.241Z,24.10
2018-08-10T13:58:27.552Z,24.00
2018-08-10T14:01:03.829Z,23.90
2018-08-10T14:03:39.273Z,23.70
2018-08-10T14:06:15.035Z,23.40
2018-08-10T14:08:50.449Z,23.30
2018-08-10T14:11:26.129Z,22.90
2018-08-10T14:14:01.625Z,22.50
2018-08-10T14:16:37.075Z,22.20
2018-08-10T14:19:12.668Z,21.90
2018-08-10T14:21:48.204Z,21.60
2018-08-10T14:24:24.185Z,21.00
2018-08-10T14:26:59.502Z,20.50
2018-08-10T14:29:35.160Z,20.20
2018-08-10T14:32:10.900Z,19.90
2018-08-10T14:34:46.493Z,19.90
2018-08-10T14:37:22.392Z,20.10
2018-08-10T14:39:58.046Z,20.30
2018-08-10T14:42:33.389Z,20.50
2018-08-10T14:45:14.076Z,20.80
2018-08-10T14:47:49.917Z,21.30
2018-08-10T14:50:25.292Z,21.90
2018-08-10T14:53:00.929Z,22.10
2018-08-10T14:55:39.937Z,21.90
2018-08-10T14:58:15.604Z,21.70
2018-08-10T15:00:51.168Z,21.40
2018-08-10T15:03:26.908Z,21.20
2018-08-10T15:06:02.236Z,21.20
2018-08-10T15:08:37.704Z,21.20
2018-08-10T15:11:16.080Z,21.30
2018-08-10T15:13:51.756Z,21.70
2018-08-10T15:16:27.244Z,22.10
2018-08-10T15:19:02.853Z,22.40
2018-08-10T15:21:38.171Z,22.60
2018-08-10T15:24:13.645Z,22.60
2018-08-10T15:26:48.952Z,22.40
2018-08-10T15:29:24.641Z,22.30
2018-08-10T15:32:00.041Z,21.90
2018-08-10T15:34:35.937Z,21.60
2018-08-10T15:37:11.217Z,21.40
2018-08-10T15:39:49.625Z,20.90
2018-08-10T15:42:24.965Z,20.70
2018-08-10T15:45:00.588Z,20.60
2018-08-10T15:47:36.137Z,20.40
2018-08-10T15:50:12.192Z,20.30
2018-08-10T15:52:47.681Z,20.40
2018-08-10T15:55:23.304Z,20.50
2018-08-10T15:57:58.772Z,20.40
2018-08-10T16:00:34.274Z,20.50
2018-08-10T16:03:09.638Z,20.50
2018-08-10T16:05:45.170Z,20.40
2018-08-10T16:08:20.392Z,20.60
2018-08-10T16:10:56.265Z,20.70
2018-08-10T16:13:31.728Z,20.80
2018-08-10T16:16:07.565Z,20.90
2018-08-10T16:18:43.216Z,21.00
2018-08-10T16:21:18.759Z,21.20
2018-08-10T16:23:54.413Z,21.20
2018-08-10T16:26:29.756Z,21.20
2018-08-10T16:29:05.317Z,21.00
2018-08-10T16:31:40.655Z,21.00
2018-08-10T16:34:16.504Z,21.00
2018-08-10T16:36:51.887Z,21.00
2018-08-10T16:39:27.455Z,20.90
2018-08-10T16:42:09.612Z,20.90
2018-08-10T16:44:45.260Z,20.90
2018-08-10T16:47:20.746Z,20.90
2018-08-10T16:49:56.163Z,20.90
2018-08-10T16:52:31.704Z,21.00
2018-08-10T16:55:13.477Z,21.10
2018-08-10T16:57:49.635Z,21.00
2018-08-10T17:00:25.500Z,21.10
2018-08-10T17:03:01.305Z,21.00
2018-08-10T17:05:36.804Z,20.80
2018-08-10T17:08:12.176Z,20.80
2018-08-10T17:10:47.681Z,20.80
2018-08-10T17:13:22.882Z,20.70
2018-08-10T17:15:58.473Z,20.70
2018-08-10T17:18:33.810Z,20.70
2018-08-10T17:21:09.484Z,20.60
2018-08-10T17:23:44.949Z,20.70
2018-08-10T17:26:21.011Z,20.70
2018-08-10T17:28:56.860Z,20.70
2018-08-10T17:31:32.907Z,20.70
2018-08-10T17:34:08.867Z,20.50
2018-08-10T17:36:44.827Z,20.40
2018-08-10T17:39:20.431Z,20.20
2018-08-10T17:41:55.879Z,20.10
2018-08-10T17:44:31.366Z,20.00
2018-08-10T17:47:07.425Z,20.00
2018-08-10T17:49:42.789Z,19.90
2018-08-10T17:52:18.472Z,19.90
2018-08-10T17:54:53.842Z,19.90
2018-08-10T17:57:29.492Z,19.90
2018-08-10T18:00:06.381Z,19.90
2018-08-10T18:02:42.329Z,19.90
2018-08-10T18:05:18.475Z,19.90
2018-08-10T18:07:54.194Z,20.00
2018-08-10T18:10:29.608Z,20.00
2018-08-10T18:13:05.825Z,20.00
2018-08-10T18:15:41.119Z,19.90
2018-08-10T18:18:16.737Z,19.90
2018-08-10T18:20:52.991Z,20.00
2018-08-10T18:23:28.889Z,19.90
2018-08-10T18:26:04.499Z,19.70
2018-08-10T18:29:01.381Z,19.70
2018-08-10T18:31:37.909Z,19.60
2018-08-10T18:34:13.622Z,19.40
2018-08-10T18:36:48.919Z,19.40
2018-08-10T18:39:24.740Z,19.20
2018-08-10T18:41:59.913Z,19.20
2018-08-10T18:44:35.420Z,19.10
2018-08-10T18:47:11.451Z,19.10
2018-08-10T18:49:47.776Z,19.00
2018-08-10T18:52:23.452Z,18.90
2018-08-10T18:54:59.680Z,18.90
2018-08-10T18:57:35.320Z,18.80
2018-08-10T19:00:19.507Z,18.80
2018-08-10T19:02:55.874Z,18.80
2018-08-10T19:05:31.607Z,18.70
2018-08-10T19:08:07.047Z,18.60
2018-08-10T19:10:42.253Z,18.60
2018-08-10T19:13:17.661Z,18.40
2018-08-10T19:15:53.691Z,18.40
2018-08-10T19:18:29.072Z,18.30
2018-08-10T19:21:04.530Z,18.40
2018-08-10T19:23:40.516Z,18.50
2018-08-10T19:26:16.376Z,18.30
2018-08-10T19:28:52.201Z,18.20
2018-08-10T19:31:27.985Z,18.30
2018-08-10T19:34:03.683Z,18.30
2018-08-10T19:36:39.188Z,18.20
2018-08-10T19:39:15.289Z,18.20
2018-08-10T19:41:50.791Z,18.10
2018-08-10T19:44:26.787Z,17.90
2018-08-10T19:47:02.054Z,18.00
2018-08-10T19:49:37.496Z,18.00
2018-08-10T19:52:12.844Z,17.90
2018-08-10T19:54:48.240Z,17.90
2018-08-10T19:57:25.343Z,17.80
2018-08-10T20:00:01.385Z,17.80
2018-08-10T20:02:37.144Z,17.80
2018-08-10T20:05:12.560Z,17.80
2018-08-10T20:07:48.436Z,17.80
2018-08-10T20:10:24.088Z,17.70
2018-08-10T20:12:59.908Z,17.60
2018-08-10T20:15:35.603Z,17.60
2018-08-10T20:18:10.908Z,17.60
2018-08-10T20:20:46.285Z,17.50
2018-08-10T20:23:21.827Z,17.50
2018-08-10T20:25:57.468Z,17.50
2018-08-10T20:28:33.125Z,17.40
2018-08-10T20:31:08.797Z,17.40
2018-08-10T20:33:44.233Z,17.40
2018-08-10T20:36:19.716Z,17.30
2018-08-10T20:38:55.765Z,17.30
2018-08-10T20:41:31.305Z,17.20
2018-08-10T20:44:06.884Z,17.30
2018-08-10T20:46:42.364Z,17.30
2018-08-10T20:49:17.721Z,17.20
2018-08-10T20:51:53.214Z,17.20
2018-08-10T20:54:28.750Z,17.20
2018-08-10T20:57:04.252Z,17.10
2018-08-10T20:59:39.448Z,17.20
2018-08-10T21:02:14.924Z,17.20
2018-08-10T21:04:50.296Z,17.20
2018-08-10T21:07:25.779Z,17.10
2018-08-10T21:10:01.979Z,17.10
2018-08-10T21:12:37.536Z,17.00
2018-08-10T21:15:14.040Z,17.00
2018-08-10T21:17:49.476Z,17.00
2018-08-10T21:20:24.863Z,17.10
2018-08-10T21:23:00.206Z,17.10
2018-08-10T21:25:35.530Z,17.00
2018-08-10T21:28:10.956Z,16.90
2018-08-10T21:30:46.322Z,16.90
2018-08-10T21:33:23.347Z,17.00
2018-08-10T21:35:58.609Z,16.90
2018-08-10T21:38:34.017Z,16.90
2018-08-10T21:41:09.407Z,16.80
2018-08-10T21:43:45.256Z,16.70
2018-08-10T21:46:20.977Z,16.70
2018-08-10T21:48:56.385Z,16.70
2018-08-10T21:51:32.225Z,16.70
2018-08-10T21:54:07.593Z,16.70
2018-08-10T21:56:43.916Z,16.80
2018-08-10T21:59:19.517Z,16.80
2018-08-10T22:01:55.382Z,16.80
2018-08-10T22:04:31.278Z,16.80
2018-08-10T22:07:06.696Z,16.80
2018-08-10T22:09:42.768Z,16.80
2018-08-10T22:12:19.562Z,16.80
2018-08-10T22:15:00.377Z,16.70
2018-08-10T22:17:41.500Z,16.70
2018-08-10T22:20:17.622Z,16.70
2018-08-10T22:22:52.885Z,16.70
2018-08-10T22:25:28.481Z,16.60
2018-08-10T22:28:03.736Z,16.60
2018-08-10T22:30:39.346Z,16.50
2018-08-10T22:33:14.805Z,16.50
2018-08-10T22:35:50.331Z,16.40
2018-08-10T22:38:25.836Z,16.40
2018-08-10T22:41:01.433Z,16.40
2018-08-10T22:43:36.913Z,16.40
2018-08-10T22:46:12.328Z,16.40
2018-08-10T22:48:47.691Z,16.40
2018-08-10T22:51:23.068Z,16.30
2018-08-10T22:53:58.538Z,16.40
2018-08-10T22:56:33.979Z,16.30
2018-08-10T22:59:09.367Z,16.30
2018-08-10T23:01:44.940Z,16.30
2018-08-10T23:04:20.405Z,16.30
2018-08-10T23:06:55.928Z,16.20
2018-08-10T23:09:31.408Z,16.20
2018-08-10T23:12:07.636Z,16.10
2018-08-10T23:14:43.166Z,16.20
2018-08-10T23:17:18.506Z,16.10
2018-08-10T23:19:54.005Z,16.10
2018-08-10T23:22:29.577Z,16.00
2018-08-10T23:25:07.964Z,16.00
2018-08-10T23:27:44.623Z,16.00
2018-08-10T23:30:19.932Z,16.00
2018-08-10T23:32:55.326Z,16.00
2018-08-10T23:35:30.821Z,16.00
2018-08-10T23:38:06.456Z,16.00
2018-08-10T23:40:41.813Z,16.00
2018-08-10T23:43:17.347Z,16.00
2018-08-10T23:45:52.724Z,16.00
2018-08-10T23:48:28.229Z,16.00
2018-08-10T23:51:03.436Z,16.00
2018-08-10T23:53:39.087Z,16.00
2018-08-10T23:56:14.248Z,16.00
2018-08-10T23:58:50.054Z,16.00
